PWSweather.com
Personal Weather Stations
Station Observations
BREAKEY01
Lévis, Breakeyville, QC G6z 7G7

LévisBreakeyville, QC G6z 7G7

Lat: 46.681, Lon: -71.224

Elevation: 328

Station Type: Davis Vantage Pro2

http://www.meteobreakey.com

Latest ConditionsUpdated 3:02:05 PM EDT Friday, Aug 28, 2015
Currently Today's Max Today's Min Today's Average
Temperature 71.4°F21.9°C 72.0°F22.2°C 53.1°F11.7°C 60.9°F16.1°C
Dew Point 59.0°F15.0°C 59.0°F15.0°C 51.6°F10.9°C 55.4°F13.0°C
Winds 6.9 mph W11.1 kmh W 8.1 mph WNW13.0 kmh WNW - 4.2 mph 6.8 kmh
Wind Gusts 2.0 mph3.2 kmh 12.1 mph19.5 kmh - -
Humidity 65% 96% 61% 83%
Pressure 30.07 in1018.3 mb 30.11 in1019.6 mb 30.02 in1016.6 mb -
Precipitation - 0.01 in0.3 mm - -
Hour Temp Dew Point Humidity Winds Wind Gusts Pressure Precip Precip Rate Daily Precip Total
03:02 PM 71.4°F21.9°C 59.0°F15.0°C 65% 6.9 mph W11.1 kmh W 2.0 mph3.2 kmh 30.07 in1018.3 mb - 0.00 in0.0 mm 0.01 in0.3 mm
02:57 PM 71.4°F21.9°C 57.7°F14.3°C 62% 6.9 mph WNW11.1 kmh WNW 6.0 mph9.7 kmh 30.07 in1018.3 mb - 0.00 in0.0 mm 0.01 in0.3 mm
02:52 PM 72.0°F22.2°C 58.3°F14.6°C 62% 6.9 mph W11.1 kmh W 10.1 mph16.3 kmh 30.07 in1018.3 mb - 0.00 in0.0 mm 0.01 in0.3 mm
02:47 PM 72.0°F22.2°C 58.6°F14.8°C 63% 4.9 mph W7.9 kmh W 8.9 mph14.3 kmh 30.08 in1018.6 mb - 0.00 in0.0 mm 0.01 in0.3 mm
02:42 PM 71.8°F22.1°C 59.0°F15.0°C 64% 4.0 mph WSW6.4 kmh WSW 4.0 mph6.4 kmh 30.08 in1018.6 mb - 0.00 in0.0 mm 0.01 in0.3 mm
02:37 PM 71.8°F22.1°C 59.0°F15.0°C 64% 4.9 mph WNW7.9 kmh WNW 2.9 mph4.7 kmh 30.08 in1018.6 mb - 0.00 in0.0 mm 0.01 in0.3 mm
02:32 PM 71.8°F22.1°C 58.1°F14.5°C 62% 6.0 mph SW9.7 kmh SW 2.0 mph3.2 kmh 30.08 in1018.6 mb - 0.00 in0.0 mm 0.01 in0.3 mm
02:27 PM 71.4°F21.9°C 58.1°F14.5°C 63% 8.1 mph WSW13.0 kmh WSW 4.0 mph6.4 kmh 30.08 in1018.6 mb - 0.00 in0.0 mm 0.01 in0.3 mm
02:22 PM 72.0°F22.2°C 57.7°F14.3°C 61% 6.9 mph WSW11.1 kmh WSW 6.9 mph11.1 kmh 30.08 in1018.6 mb - 0.00 in0.0 mm 0.01 in0.3 mm
02:17 PM 72.0°F22.2°C 58.6°F14.8°C 63% 6.0 mph WSW9.7 kmh WSW 10.1 mph16.3 kmh 30.08 in1018.6 mb - 0.00 in0.0 mm 0.01 in0.3 mm
02:12 PM 71.2°F21.8°C 57.9°F14.4°C 63% 6.9 mph WNW11.1 kmh WNW 6.9 mph11.1 kmh 30.08 in1018.6 mb - 0.00 in0.0 mm 0.01 in0.3 mm
02:07 PM 71.1°F21.7°C 56.8°F13.8°C 61% 8.1 mph WSW13.0 kmh WSW 4.0 mph6.4 kmh 30.08 in1018.6 mb - 0.00 in0.0 mm 0.01 in0.3 mm
02:02 PM 70.9°F21.6°C 57.2°F14.0°C 62% 6.9 mph WSW11.1 kmh WSW 4.9 mph7.9 kmh 30.08 in1018.6 mb - 0.00 in0.0 mm 0.01 in0.3 mm
01:57 PM 70.9°F21.6°C 57.2°F14.0°C 62% 6.9 mph W11.1 kmh W 10.1 mph16.3 kmh 30.08 in1018.6 mb - 0.00 in0.0 mm 0.01 in0.3 mm
01:52 PM 70.9°F21.6°C 56.8°F13.8°C 61% 8.1 mph WNW13.0 kmh WNW 4.0 mph6.4 kmh 30.08 in1018.6 mb - 0.00 in0.0 mm 0.01 in0.3 mm
01:47 PM 71.4°F21.9°C 57.7°F14.3°C 62% 6.9 mph SW11.1 kmh SW 8.1 mph13.0 kmh 30.08 in1018.6 mb - 0.00 in0.0 mm 0.01 in0.3 mm
01:42 PM 71.4°F21.9°C 58.1°F14.5°C 63% 6.9 mph WSW11.1 kmh WSW 11.0 mph17.7 kmh 30.08 in1018.6 mb - 0.00 in0.0 mm 0.01 in0.3 mm
01:37 PM 70.9°F21.6°C 57.7°F14.3°C 63% 8.1 mph W13.0 kmh W 12.1 mph19.5 kmh 30.08 in1018.6 mb - 0.00 in0.0 mm 0.01 in0.3 mm
01:32 PM 71.4°F21.9°C 57.7°F14.3°C 62% 6.9 mph WSW11.1 kmh WSW 12.1 mph19.5 kmh 30.08 in1018.6 mb - 0.00 in0.0 mm 0.01 in0.3 mm
01:27 PM 71.1°F21.7°C 58.3°F14.6°C 64% 6.9 mph WSW11.1 kmh WSW 4.0 mph6.4 kmh 30.08 in1018.6 mb - 0.00 in0.0 mm 0.01 in0.3 mm
01:22 PM 70.3°F21.3°C 57.6°F14.2°C 64% 6.0 mph SW9.7 kmh SW 6.0 mph9.7 kmh 30.09 in1019.0 mb - 0.00 in0.0 mm 0.01 in0.3 mm
01:17 PM 70.5°F21.4°C 56.5°F13.6°C 61% 6.0 mph WSW9.7 kmh WSW 2.0 mph3.2 kmh 30.09 in1019.0 mb - 0.00 in0.0 mm 0.01 in0.3 mm
01:12 PM 71.1°F21.7°C 56.8°F13.8°C 61% 6.9 mph WNW11.1 kmh WNW 4.0 mph6.4 kmh 30.09 in1019.0 mb - 0.00 in0.0 mm 0.01 in0.3 mm
01:07 PM 71.1°F21.7°C 58.3°F14.6°C 64% 6.9 mph NW11.1 kmh NW 12.1 mph19.5 kmh 30.09 in1019.0 mb - 0.00 in0.0 mm 0.01 in0.3 mm
01:02 PM 71.1°F21.7°C 56.8°F13.8°C 61% 6.9 mph WSW11.1 kmh WSW 2.0 mph3.2 kmh 30.09 in1019.0 mb - 0.00 in0.0 mm 0.01 in0.3 mm
12:57 PM 71.1°F21.7°C 56.8°F13.8°C 61% 6.9 mph W11.1 kmh W 2.0 mph3.2 kmh 30.09 in1019.0 mb - 0.00 in0.0 mm 0.01 in0.3 mm
12:52 PM 70.9°F21.6°C 58.5°F14.7°C 65% 6.9 mph W11.1 kmh W 12.1 mph19.5 kmh 30.09 in1019.0 mb - 0.00 in0.0 mm 0.01 in0.3 mm
12:47 PM 70.5°F21.4°C 56.5°F13.6°C 61% 6.0 mph W9.7 kmh W 6.9 mph11.1 kmh 30.09 in1019.0 mb - 0.00 in0.0 mm 0.01 in0.3 mm
12:42 PM 71.1°F21.7°C 58.3°F14.6°C 64% 4.9 mph NW7.9 kmh NW 4.9 mph7.9 kmh 30.09 in1019.0 mb - 0.00 in0.0 mm 0.01 in0.3 mm
12:37 PM 70.5°F21.4°C 57.4°F14.1°C 63% 4.9 mph W7.9 kmh W 6.9 mph11.1 kmh 30.09 in1019.0 mb - 0.00 in0.0 mm 0.01 in0.3 mm
12:32 PM 70.3°F21.3°C 57.2°F14.0°C 63% 6.0 mph SW9.7 kmh SW 2.9 mph4.7 kmh 30.09 in1019.0 mb - 0.00 in0.0 mm 0.01 in0.3 mm
12:27 PM 70.2°F21.2°C 57.9°F14.4°C 65% 6.0 mph W9.7 kmh W 4.0 mph6.4 kmh 30.09 in1019.0 mb - 0.00 in0.0 mm 0.01 in0.3 mm
12:22 PM 70.0°F21.1°C 58.1°F14.5°C 66% 6.9 mph NW11.1 kmh NW 2.0 mph3.2 kmh 30.09 in1019.0 mb - 0.00 in0.0 mm 0.01 in0.3 mm
12:17 PM 69.6°F20.9°C 55.9°F13.3°C 62% 6.0 mph WSW9.7 kmh WSW 4.0 mph6.4 kmh 30.10 in1019.3 mb - 0.00 in0.0 mm 0.01 in0.3 mm
12:12 PM 70.2°F21.2°C 57.4°F14.1°C 64% 6.0 mph WSW9.7 kmh WSW 8.9 mph14.3 kmh 30.10 in1019.3 mb - 0.00 in0.0 mm 0.01 in0.3 mm
12:07 PM 70.2°F21.2°C 57.9°F14.4°C 65% 6.0 mph WSW9.7 kmh WSW 2.0 mph3.2 kmh 30.10 in1019.3 mb - 0.00 in0.0 mm 0.01 in0.3 mm
12:02 PM 69.8°F21.0°C 57.6°F14.2°C 65% 6.0 mph WSW9.7 kmh WSW 8.1 mph13.0 kmh 30.10 in1019.3 mb - 0.00 in0.0 mm 0.01 in0.3 mm
11:57 AM 69.1°F20.6°C 57.2°F14.0°C 66% 4.9 mph WSW7.9 kmh WSW 0.9 mph1.4 kmh 30.10 in1019.3 mb - 0.00 in0.0 mm 0.01 in0.3 mm
11:52 AM 69.3°F20.7°C 56.5°F13.6°C 64% 6.0 mph W9.7 kmh W 8.9 mph14.3 kmh 30.10 in1019.3 mb - 0.00 in0.0 mm 0.01 in0.3 mm
11:47 AM 69.6°F20.9°C 57.4°F14.1°C 65% 6.0 mph W9.7 kmh W 4.0 mph6.4 kmh 30.10 in1019.3 mb - 0.00 in0.0 mm 0.01 in0.3 mm
11:42 AM 69.4°F20.8°C 57.6°F14.2°C 66% 6.0 mph WSW9.7 kmh WSW 4.0 mph6.4 kmh 30.10 in1019.3 mb - 0.00 in0.0 mm 0.01 in0.3 mm
11:37 AM 69.3°F20.7°C 57.9°F14.4°C 67% 6.0 mph W9.7 kmh W 2.9 mph4.7 kmh 30.10 in1019.3 mb - 0.00 in0.0 mm 0.01 in0.3 mm
11:32 AM 69.1°F20.6°C 57.7°F14.3°C 67% 4.9 mph SW7.9 kmh SW 6.0 mph9.7 kmh 30.11 in1019.6 mb - 0.00 in0.0 mm 0.01 in0.3 mm
11:27 AM 68.5°F20.3°C 58.8°F14.9°C 71% 4.9 mph WSW7.9 kmh WSW 2.0 mph3.2 kmh 30.11 in1019.6 mb - 0.00 in0.0 mm 0.01 in0.3 mm
11:22 AM 68.4°F20.2°C 59.0°F15.0°C 72% 4.0 mph WNW6.4 kmh WNW 2.9 mph4.7 kmh 30.11 in1019.6 mb - 0.00 in0.0 mm 0.01 in0.3 mm
11:17 AM 67.8°F19.9°C 58.8°F14.9°C 73% 4.0 mph WNW6.4 kmh WNW 2.0 mph3.2 kmh 30.11 in1019.6 mb - 0.00 in0.0 mm 0.01 in0.3 mm
11:12 AM 67.8°F19.9°C 57.7°F14.3°C 70% 4.9 mph WNW7.9 kmh WNW 2.9 mph4.7 kmh 30.11 in1019.6 mb - 0.00 in0.0 mm 0.01 in0.3 mm
11:07 AM 67.6°F19.8°C 58.6°F14.8°C 73% 4.9 mph SW7.9 kmh SW 8.9 mph14.3 kmh 30.11 in1019.6 mb - 0.00 in0.0 mm 0.01 in0.3 mm
11:02 AM 67.1°F19.5°C 57.7°F14.3°C 72% 4.9 mph WSW7.9 kmh WSW 4.0 mph6.4 kmh 30.10 in1019.3 mb - 0.00 in0.0 mm 0.01 in0.3 mm
10:57 AM 67.5°F19.7°C 57.4°F14.1°C 70% 4.0 mph WSW6.4 kmh WSW 10.1 mph16.3 kmh 30.11 in1019.6 mb - 0.00 in0.0 mm 0.01 in0.3 mm
10:52 AM 67.5°F19.7°C 58.5°F14.7°C 73% 4.9 mph SW7.9 kmh SW 2.9 mph4.7 kmh 30.11 in1019.6 mb - 0.00 in0.0 mm 0.01 in0.3 mm
10:47 AM 66.4°F19.1°C 57.4°F14.1°C 73% 6.0 mph WSW9.7 kmh WSW 8.9 mph14.3 kmh 30.11 in1019.6 mb - 0.00 in0.0 mm 0.01 in0.3 mm
10:42 AM 66.4°F19.1°C 57.4°F14.1°C 73% 4.9 mph SW7.9 kmh SW 8.1 mph13.0 kmh 30.11 in1019.6 mb - 0.00 in0.0 mm 0.01 in0.3 mm
10:37 AM 66.4°F19.1°C 57.9°F14.4°C 74% 4.9 mph WSW7.9 kmh WSW 4.0 mph6.4 kmh 30.11 in1019.6 mb - 0.00 in0.0 mm 0.01 in0.3 mm
10:32 AM 65.8°F18.8°C 57.7°F14.3°C 75% 4.9 mph WNW7.9 kmh WNW 4.9 mph7.9 kmh 30.11 in1019.6 mb - 0.00 in0.0 mm 0.01 in0.3 mm
10:27 AM 66.0°F18.9°C 57.6°F14.2°C 74% 4.9 mph WSW7.9 kmh WSW 10.1 mph16.3 kmh 30.11 in1019.6 mb - 0.00 in0.0 mm 0.01 in0.3 mm
10:22 AM 66.2°F19.0°C 58.5°F14.7°C 76% 4.9 mph W7.9 kmh W 2.9 mph4.7 kmh 30.11 in1019.6 mb - 0.00 in0.0 mm 0.01 in0.3 mm
10:17 AM 65.5°F18.6°C 57.7°F14.3°C 76% 6.0 mph WSW9.7 kmh WSW 8.9 mph14.3 kmh 30.11 in1019.6 mb - 0.00 in0.0 mm 0.01 in0.3 mm
10:12 AM 64.9°F18.3°C 56.8°F13.8°C 75% 4.9 mph WSW7.9 kmh WSW 2.9 mph4.7 kmh 30.11 in1019.6 mb - 0.00 in0.0 mm 0.01 in0.3 mm
10:07 AM 65.5°F18.6°C 56.7°F13.7°C 73% 4.0 mph WSW6.4 kmh WSW 12.1 mph19.5 kmh 30.11 in1019.6 mb - 0.00 in0.0 mm 0.01 in0.3 mm
10:02 AM 64.9°F18.3°C 57.9°F14.4°C 78% 4.9 mph WSW7.9 kmh WSW 6.0 mph9.7 kmh 30.11 in1019.6 mb - 0.00 in0.0 mm 0.01 in0.3 mm
09:57 AM 64.6°F18.1°C 57.6°F14.2°C 78% 4.9 mph W7.9 kmh W 2.9 mph4.7 kmh 30.11 in1019.6 mb - 0.00 in0.0 mm 0.01 in0.3 mm
09:52 AM 64.0°F17.8°C 57.7°F14.3°C 80% 4.9 mph W7.9 kmh W 8.1 mph13.0 kmh 30.11 in1019.6 mb - 0.00 in0.0 mm 0.01 in0.3 mm
09:47 AM 63.7°F17.6°C 57.0°F13.9°C 79% 6.0 mph NW9.7 kmh NW 4.9 mph7.9 kmh 30.11 in1019.6 mb - 0.00 in0.0 mm 0.01 in0.3 mm
09:42 AM 63.7°F17.6°C 57.4°F14.1°C 80% 6.0 mph WNW9.7 kmh WNW 4.0 mph6.4 kmh 30.11 in1019.6 mb - 0.00 in0.0 mm 0.01 in0.3 mm
09:37 AM 63.3°F17.4°C 57.0°F13.9°C 80% 6.0 mph W9.7 kmh W 6.9 mph11.1 kmh 30.11 in1019.6 mb - 0.00 in0.0 mm 0.01 in0.3 mm
09:32 AM 63.7°F17.6°C 57.7°F14.3°C 81% 4.0 mph WSW6.4 kmh WSW 6.0 mph9.7 kmh 30.11 in1019.6 mb - 0.00 in0.0 mm 0.01 in0.3 mm
09:27 AM 63.9°F17.7°C 58.3°F14.6°C 82% 2.9 mph WSW4.7 kmh WSW 10.1 mph16.3 kmh 30.10 in1019.3 mb - 0.00 in0.0 mm 0.01 in0.3 mm
09:22 AM 63.1°F17.3°C 58.3°F14.6°C 84% 2.9 mph SW4.7 kmh SW 4.0 mph6.4 kmh 30.10 in1019.3 mb - 0.00 in0.0 mm 0.01 in0.3 mm
09:17 AM 62.4°F16.9°C 58.1°F14.5°C 86% 4.0 mph SW6.4 kmh SW 2.0 mph3.2 kmh 30.10 in1019.3 mb - 0.00 in0.0 mm 0.01 in0.3 mm
09:12 AM 62.2°F16.8°C 57.9°F14.4°C 86% 4.0 mph SW6.4 kmh SW 4.0 mph6.4 kmh 30.10 in1019.3 mb - 0.00 in0.0 mm 0.01 in0.3 mm
09:07 AM 61.9°F16.6°C 57.9°F14.4°C 87% 4.0 mph WSW6.4 kmh WSW 2.0 mph3.2 kmh 30.10 in1019.3 mb - 0.00 in0.0 mm 0.01 in0.3 mm
09:02 AM 61.3°F16.3°C 57.4°F14.1°C 87% 2.9 mph WSW4.7 kmh WSW 2.0 mph3.2 kmh 30.10 in1019.3 mb - 0.00 in0.0 mm 0.01 in0.3 mm
08:57 AM 61.0°F16.1°C 57.4°F14.1°C 88% 2.9 mph WSW4.7 kmh WSW 4.0 mph6.4 kmh 30.10 in1019.3 mb - 0.00 in0.0 mm 0.01 in0.3 mm
08:52 AM 60.4°F15.8°C 57.6°F14.2°C 90% 2.9 mph SW4.7 kmh SW 4.0 mph6.4 kmh 30.09 in1019.0 mb - 0.00 in0.0 mm 0.01 in0.3 mm
08:42 AM 59.5°F15.3°C 56.7°F13.7°C 90% 2.9 mph WSW4.7 kmh WSW 4.0 mph6.4 kmh 30.09 in1019.0 mb - 0.00 in0.0 mm 0.01 in0.3 mm
08:37 AM 59.4°F15.2°C 56.7°F13.7°C 91% 4.0 mph SW6.4 kmh SW 2.9 mph4.7 kmh 30.09 in1019.0 mb - 0.00 in0.0 mm 0.01 in0.3 mm
08:32 AM 58.8°F14.9°C 56.5°F13.6°C 92% 4.0 mph W6.4 kmh W 0.9 mph1.4 kmh 30.09 in1019.0 mb - 0.00 in0.0 mm 0.01 in0.3 mm
08:27 AM 58.5°F14.7°C 56.1°F13.4°C 92% 4.0 mph WSW6.4 kmh WSW 6.0 mph9.7 kmh 30.09 in1019.0 mb - 0.00 in0.0 mm 0.01 in0.3 mm
08:22 AM 57.9°F14.4°C 55.9°F13.3°C 93% 4.0 mph WSW6.4 kmh WSW 2.9 mph4.7 kmh 30.09 in1019.0 mb - 0.00 in0.0 mm 0.01 in0.3 mm
08:17 AM 57.7°F14.3°C 55.8°F13.2°C 93% 2.9 mph WSW4.7 kmh WSW 4.0 mph6.4 kmh 30.09 in1019.0 mb - 0.00 in0.0 mm 0.01 in0.3 mm
08:12 AM 57.2°F14.0°C 55.2°F12.9°C 93% 2.9 mph WSW4.7 kmh WSW 6.9 mph11.1 kmh 30.09 in1019.0 mb - 0.00 in0.0 mm 0.01 in0.3 mm
08:07 AM 57.0°F13.9°C 55.2°F12.9°C 94% 2.9 mph WSW4.7 kmh WSW 2.9 mph4.7 kmh 30.09 in1019.0 mb - 0.00 in0.0 mm 0.01 in0.3 mm
08:02 AM 56.7°F13.7°C 55.0°F12.8°C 94% 4.0 mph WSW6.4 kmh WSW 2.9 mph4.7 kmh 30.09 in1019.0 mb - 0.00 in0.0 mm 0.01 in0.3 mm
07:57 AM 56.3°F13.5°C 54.7°F12.6°C 94% 2.9 mph W4.7 kmh W 0.9 mph1.4 kmh 30.10 in1019.3 mb - 0.00 in0.0 mm 0.01 in0.3 mm
07:52 AM 55.9°F13.3°C 54.5°F12.5°C 95% 2.9 mph SW4.7 kmh SW 0.9 mph1.4 kmh 30.10 in1019.3 mb - 0.00 in0.0 mm 0.01 in0.3 mm
07:47 AM 55.6°F13.1°C 54.1°F12.3°C 95% 2.9 mph WSW4.7 kmh WSW 6.0 mph9.7 kmh 30.10 in1019.3 mb - 0.00 in0.0 mm 0.01 in0.3 mm
07:42 AM 55.4°F13.0°C 54.0°F12.2°C 95% 4.0 mph SW6.4 kmh SW 2.9 mph4.7 kmh 30.10 in1019.3 mb - 0.00 in0.0 mm 0.01 in0.3 mm
07:37 AM 55.0°F12.8°C 53.6°F12.0°C 95% 4.9 mph WSW7.9 kmh WSW 4.0 mph6.4 kmh 30.10 in1019.3 mb - 0.00 in0.0 mm 0.01 in0.3 mm
07:32 AM 54.9°F12.7°C 53.8°F12.1°C 96% 4.9 mph WSW7.9 kmh WSW 2.9 mph4.7 kmh 30.10 in1019.3 mb - 0.00 in0.0 mm 0.01 in0.3 mm
07:27 AM 54.5°F12.5°C 53.4°F11.9°C 96% 4.0 mph WSW6.4 kmh WSW 4.0 mph6.4 kmh 30.10 in1019.3 mb - 0.00 in0.0 mm 0.01 in0.3 mm
07:22 AM 54.1°F12.3°C 53.1°F11.7°C 96% 2.9 mph SW4.7 kmh SW 6.0 mph9.7 kmh 30.10 in1019.3 mb - 0.00 in0.0 mm 0.01 in0.3 mm
07:17 AM 54.0°F12.2°C 52.9°F11.6°C 96% 2.0 mph WSW3.2 kmh WSW 4.0 mph6.4 kmh 30.09 in1019.0 mb - 0.00 in0.0 mm 0.01 in0.3 mm
07:12 AM 53.8°F12.1°C 52.7°F11.5°C 96% 2.0 mph WSW3.2 kmh WSW 2.0 mph3.2 kmh 30.09 in1019.0 mb - 0.00 in0.0 mm 0.01 in0.3 mm
07:07 AM 53.4°F11.9°C 52.3°F11.3°C 96% 2.9 mph WSW4.7 kmh WSW 2.9 mph4.7 kmh 30.09 in1019.0 mb - 0.00 in0.0 mm 0.01 in0.3 mm
07:02 AM 53.2°F11.8°C 51.8°F11.0°C 95% 2.9 mph W4.7 kmh W 0.9 mph1.4 kmh 30.09 in1019.0 mb - 0.00 in0.0 mm 0.01 in0.3 mm
06:57 AM 53.2°F11.8°C 51.8°F11.0°C 95% 2.9 mph WSW4.7 kmh WSW 2.9 mph4.7 kmh 30.09 in1019.0 mb - 0.00 in0.0 mm 0.01 in0.3 mm
06:52 AM 53.1°F11.7°C 51.6°F10.9°C 95% 2.9 mph WSW4.7 kmh WSW 4.0 mph6.4 kmh 30.09 in1019.0 mb - 0.00 in0.0 mm 0.01 in0.3 mm
06:47 AM 53.1°F11.7°C 51.6°F10.9°C 95% 2.9 mph W4.7 kmh W -- 30.09 in1019.0 mb - 0.00 in0.0 mm 0.01 in0.3 mm
06:42 AM 53.1°F11.7°C 51.6°F10.9°C 95% 2.9 mph WSW4.7 kmh WSW 4.0 mph6.4 kmh 30.08 in1018.6 mb - 0.00 in0.0 mm 0.01 in0.3 mm
06:37 AM 53.1°F11.7°C 51.6°F10.9°C 95% 2.9 mph WSW4.7 kmh WSW 2.9 mph4.7 kmh 30.08 in1018.6 mb - 0.00 in0.0 mm 0.01 in0.3 mm
06:32 AM 53.1°F11.7°C 51.6°F10.9°C 95% 2.0 mph WSW3.2 kmh WSW 2.0 mph3.2 kmh 30.08 in1018.6 mb - 0.00 in0.0 mm 0.01 in0.3 mm
06:27 AM 53.1°F11.7°C 51.6°F10.9°C 95% 2.0 mph SW3.2 kmh SW 2.9 mph4.7 kmh 30.08 in1018.6 mb - 0.00 in0.0 mm 0.01 in0.3 mm
06:22 AM 53.2°F11.8°C 51.8°F11.0°C 95% 2.9 mph SW4.7 kmh SW 2.0 mph3.2 kmh 30.08 in1018.6 mb - 0.00 in0.0 mm 0.01 in0.3 mm
06:17 AM 53.2°F11.8°C 51.8°F11.0°C 95% 2.9 mph SW4.7 kmh SW 4.0 mph6.4 kmh 30.08 in1018.6 mb - 0.00 in0.0 mm 0.00 in0.0 mm
06:12 AM 53.2°F11.8°C 51.8°F11.0°C 95% 2.9 mph WSW4.7 kmh WSW 4.0 mph6.4 kmh 30.08 in1018.6 mb - 0.00 in0.0 mm 0.00 in0.0 mm
06:07 AM 53.2°F11.8°C 51.8°F11.0°C 95% 4.0 mph WSW6.4 kmh WSW 2.9 mph4.7 kmh 30.07 in1018.3 mb - 0.00 in0.0 mm 0.00 in0.0 mm
06:02 AM 53.2°F11.8°C 51.8°F11.0°C 95% 4.0 mph SW6.4 kmh SW 2.0 mph3.2 kmh 30.07 in1018.3 mb - 0.00 in0.0 mm 0.00 in0.0 mm
05:57 AM 53.4°F11.9°C 52.0°F11.1°C 95% 2.9 mph WSW4.7 kmh WSW 4.0 mph6.4 kmh 30.07 in1018.3 mb - 0.00 in0.0 mm 0.00 in0.0 mm
05:52 AM 53.8°F12.1°C 52.3°F11.3°C 95% 4.0 mph W6.4 kmh W 6.0 mph9.7 kmh 30.06 in1017.9 mb - 0.00 in0.0 mm 0.00 in0.0 mm
05:47 AM 54.0°F12.2°C 52.5°F11.4°C 95% 4.0 mph WSW6.4 kmh WSW 2.0 mph3.2 kmh 30.07 in1018.3 mb - 0.00 in0.0 mm 0.00 in0.0 mm
05:42 AM 54.1°F12.3°C 52.7°F11.5°C 95% 4.0 mph W6.4 kmh W 6.9 mph11.1 kmh 30.06 in1017.9 mb - 0.00 in0.0 mm 0.00 in0.0 mm
05:37 AM 54.1°F12.3°C 52.7°F11.5°C 95% 4.9 mph WSW7.9 kmh WSW 4.0 mph6.4 kmh 30.06 in1017.9 mb - 0.00 in0.0 mm 0.00 in0.0 mm
05:32 AM 54.3°F12.4°C 52.9°F11.6°C 95% 4.9 mph WSW7.9 kmh WSW 8.9 mph14.3 kmh 30.06 in1017.9 mb - 0.00 in0.0 mm 0.00 in0.0 mm
05:27 AM 54.3°F12.4°C 52.9°F11.6°C 95% 4.0 mph WSW6.4 kmh WSW 4.0 mph6.4 kmh 30.06 in1017.9 mb - 0.00 in0.0 mm 0.00 in0.0 mm
05:22 AM 54.3°F12.4°C 52.9°F11.6°C 95% 4.0 mph WSW6.4 kmh WSW 4.9 mph7.9 kmh 30.06 in1017.9 mb - 0.00 in0.0 mm 0.00 in0.0 mm
05:17 AM 54.7°F12.6°C 53.2°F11.8°C 95% 4.0 mph SW6.4 kmh SW 4.0 mph6.4 kmh 30.06 in1017.9 mb - 0.00 in0.0 mm 0.00 in0.0 mm
05:12 AM 54.7°F12.6°C 53.2°F11.8°C 95% 4.9 mph WSW7.9 kmh WSW 4.9 mph7.9 kmh 30.06 in1017.9 mb - 0.00 in0.0 mm 0.00 in0.0 mm
05:07 AM 54.7°F12.6°C 53.2°F11.8°C 95% 4.9 mph WSW7.9 kmh WSW 2.9 mph4.7 kmh 30.06 in1017.9 mb - 0.00 in0.0 mm 0.00 in0.0 mm
05:02 AM 54.5°F12.5°C 53.1°F11.7°C 95% 2.9 mph WSW4.7 kmh WSW 6.9 mph11.1 kmh 30.06 in1017.9 mb - 0.00 in0.0 mm 0.00 in0.0 mm
04:57 AM 54.7°F12.6°C 53.1°F11.7°C 94% 2.0 mph WSW3.2 kmh WSW 2.0 mph3.2 kmh 30.06 in1017.9 mb - 0.00 in0.0 mm 0.00 in0.0 mm
04:52 AM 54.7°F12.6°C 53.1°F11.7°C 94% 2.0 mph WSW3.2 kmh WSW -- 30.06 in1017.9 mb - 0.00 in0.0 mm 0.00 in0.0 mm
04:47 AM 54.7°F12.6°C 53.1°F11.7°C 94% 2.0 mph WSW3.2 kmh WSW 2.9 mph4.7 kmh 30.06 in1017.9 mb - 0.00 in0.0 mm 0.00 in0.0 mm
04:42 AM 54.9°F12.7°C 53.2°F11.8°C 94% 2.0 mph WSW3.2 kmh WSW 0.9 mph1.4 kmh 30.06 in1017.9 mb - 0.00 in0.0 mm 0.00 in0.0 mm
04:37 AM 55.0°F12.8°C 53.4°F11.9°C 94% 2.0 mph WSW3.2 kmh WSW 2.9 mph4.7 kmh 30.06 in1017.9 mb - 0.00 in0.0 mm 0.00 in0.0 mm
04:32 AM 55.0°F12.8°C 53.4°F11.9°C 94% 2.0 mph WSW3.2 kmh WSW -- 30.06 in1017.9 mb - 0.00 in0.0 mm 0.00 in0.0 mm
04:27 AM 55.2°F12.9°C 53.6°F12.0°C 94% 2.9 mph W4.7 kmh W 2.0 mph3.2 kmh 30.06 in1017.9 mb - 0.00 in0.0 mm 0.00 in0.0 mm
04:22 AM 55.2°F12.9°C 53.6°F12.0°C 94% 2.9 mph WSW4.7 kmh WSW 6.0 mph9.7 kmh 30.06 in1017.9 mb - 0.00 in0.0 mm 0.00 in0.0 mm
04:17 AM 55.2°F12.9°C 53.6°F12.0°C 94% 2.9 mph W4.7 kmh W 2.9 mph4.7 kmh 30.06 in1017.9 mb - 0.00 in0.0 mm 0.00 in0.0 mm
04:12 AM 55.2°F12.9°C 53.6°F12.0°C 94% 2.9 mph W4.7 kmh W 2.0 mph3.2 kmh 30.05 in1017.6 mb - 0.00 in0.0 mm 0.00 in0.0 mm
04:07 AM 55.4°F13.0°C 53.8°F12.1°C 94% 4.0 mph W6.4 kmh W 2.0 mph3.2 kmh 30.05 in1017.6 mb - 0.00 in0.0 mm 0.00 in0.0 mm
04:02 AM 55.4°F13.0°C 53.4°F11.9°C 93% 4.9 mph WSW7.9 kmh WSW 2.0 mph3.2 kmh 30.06 in1017.9 mb - 0.00 in0.0 mm 0.00 in0.0 mm
03:57 AM 55.4°F13.0°C 53.4°F11.9°C 93% 4.9 mph W7.9 kmh W 2.0 mph3.2 kmh 30.05 in1017.6 mb - 0.00 in0.0 mm 0.00 in0.0 mm
03:52 AM 55.4°F13.0°C 53.4°F11.9°C 93% 4.0 mph WNW6.4 kmh WNW 6.9 mph11.1 kmh 30.05 in1017.6 mb - 0.00 in0.0 mm 0.00 in0.0 mm
03:47 AM 55.4°F13.0°C 53.4°F11.9°C 93% 4.0 mph W6.4 kmh W 2.0 mph3.2 kmh 30.04 in1017.3 mb - 0.00 in0.0 mm 0.00 in0.0 mm
03:42 AM 55.4°F13.0°C 53.4°F11.9°C 93% 4.0 mph SW6.4 kmh SW 6.0 mph9.7 kmh 30.04 in1017.3 mb - 0.00 in0.0 mm 0.00 in0.0 mm
03:37 AM 55.6°F13.1°C 53.6°F12.0°C 93% 4.0 mph WNW6.4 kmh WNW 2.9 mph4.7 kmh 30.04 in1017.3 mb - 0.00 in0.0 mm 0.00 in0.0 mm
03:32 AM 55.6°F13.1°C 53.6°F12.0°C 93% 4.0 mph WSW6.4 kmh WSW 6.9 mph11.1 kmh 30.05 in1017.6 mb - 0.00 in0.0 mm 0.00 in0.0 mm
03:27 AM 55.6°F13.1°C 53.6°F12.0°C 93% 4.0 mph W6.4 kmh W 4.0 mph6.4 kmh 30.05 in1017.6 mb - 0.00 in0.0 mm 0.00 in0.0 mm
03:22 AM 55.8°F13.2°C 53.8°F12.1°C 93% 4.0 mph W6.4 kmh W 8.1 mph13.0 kmh 30.04 in1017.3 mb - 0.00 in0.0 mm 0.00 in0.0 mm
03:17 AM 55.6°F13.1°C 53.6°F12.0°C 93% 4.0 mph W6.4 kmh W 8.1 mph13.0 kmh 30.04 in1017.3 mb - 0.00 in0.0 mm 0.00 in0.0 mm
03:12 AM 55.6°F13.1°C 53.6°F12.0°C 93% 4.0 mph SW6.4 kmh SW 8.1 mph13.0 kmh 30.04 in1017.3 mb - 0.00 in0.0 mm 0.00 in0.0 mm
03:07 AM 55.6°F13.1°C 53.6°F12.0°C 93% 2.9 mph WSW4.7 kmh WSW 4.0 mph6.4 kmh 30.04 in1017.3 mb - 0.00 in0.0 mm 0.00 in0.0 mm
03:02 AM 55.6°F13.1°C 53.6°F12.0°C 93% 2.9 mph NW4.7 kmh NW 2.9 mph4.7 kmh 30.04 in1017.3 mb - 0.00 in0.0 mm 0.00 in0.0 mm
02:57 AM 55.6°F13.1°C 53.6°F12.0°C 93% 2.0 mph WSW3.2 kmh WSW 2.9 mph4.7 kmh 30.04 in1017.3 mb - 0.00 in0.0 mm 0.00 in0.0 mm
02:52 AM 55.6°F13.1°C 53.6°F12.0°C 93% 2.9 mph W4.7 kmh W 2.0 mph3.2 kmh 30.04 in1017.3 mb - 0.00 in0.0 mm 0.00 in0.0 mm
02:47 AM 55.8°F13.2°C 53.8°F12.1°C 93% 4.0 mph WSW6.4 kmh WSW 0.9 mph1.4 kmh 30.04 in1017.3 mb - 0.00 in0.0 mm 0.00 in0.0 mm
02:42 AM 55.8°F13.2°C 53.4°F11.9°C 92% 2.9 mph WSW4.7 kmh WSW 0.9 mph1.4 kmh 30.04 in1017.3 mb - 0.00 in0.0 mm 0.00 in0.0 mm
02:37 AM 55.8°F13.2°C 53.4°F11.9°C 92% 2.9 mph WSW4.7 kmh WSW 2.9 mph4.7 kmh 30.04 in1017.3 mb - 0.00 in0.0 mm 0.00 in0.0 mm
02:32 AM 55.8°F13.2°C 53.4°F11.9°C 92% 2.9 mph WSW4.7 kmh WSW 2.0 mph3.2 kmh 30.04 in1017.3 mb - 0.00 in0.0 mm 0.00 in0.0 mm
02:27 AM 55.9°F13.3°C 53.6°F12.0°C 92% 4.0 mph WSW6.4 kmh WSW 0.9 mph1.4 kmh 30.03 in1016.9 mb - 0.00 in0.0 mm 0.00 in0.0 mm
02:22 AM 55.9°F13.3°C 53.6°F12.0°C 92% 2.9 mph WSW4.7 kmh WSW 2.9 mph4.7 kmh 30.03 in1016.9 mb - 0.00 in0.0 mm 0.00 in0.0 mm
02:17 AM 55.9°F13.3°C 53.6°F12.0°C 92% 2.9 mph WSW4.7 kmh WSW 4.0 mph6.4 kmh 30.03 in1016.9 mb - 0.00 in0.0 mm 0.00 in0.0 mm
02:12 AM 56.1°F13.4°C 53.8°F12.1°C 92% 4.0 mph WSW6.4 kmh WSW 0.9 mph1.4 kmh 30.03 in1016.9 mb - 0.00 in0.0 mm 0.00 in0.0 mm
02:07 AM 56.1°F13.4°C 53.8°F12.1°C 92% 4.0 mph SW6.4 kmh SW 4.9 mph7.9 kmh 30.03 in1016.9 mb - 0.00 in0.0 mm 0.00 in0.0 mm
02:02 AM 56.3°F13.5°C 54.0°F12.2°C 92% 4.0 mph NW6.4 kmh NW 2.9 mph4.7 kmh 30.03 in1016.9 mb - 0.00 in0.0 mm 0.00 in0.0 mm
01:57 AM 56.5°F13.6°C 54.1°F12.3°C 92% 2.9 mph WSW4.7 kmh WSW 4.0 mph6.4 kmh 30.03 in1016.9 mb - 0.00 in0.0 mm 0.00 in0.0 mm
01:52 AM 56.5°F13.6°C 54.1°F12.3°C 92% 2.9 mph W4.7 kmh W 2.0 mph3.2 kmh 30.03 in1016.9 mb - 0.00 in0.0 mm 0.00 in0.0 mm
01:47 AM 56.7°F13.7°C 54.3°F12.4°C 92% 2.9 mph WSW4.7 kmh WSW 2.0 mph3.2 kmh 30.03 in1016.9 mb - 0.00 in0.0 mm 0.00 in0.0 mm
01:42 AM 56.7°F13.7°C 54.3°F12.4°C 92% 4.0 mph WSW6.4 kmh WSW 4.0 mph6.4 kmh 30.03 in1016.9 mb - 0.00 in0.0 mm 0.00 in0.0 mm
01:37 AM 56.8°F13.8°C 54.5°F12.5°C 92% 2.9 mph WSW4.7 kmh WSW 4.9 mph7.9 kmh 30.03 in1016.9 mb - 0.00 in0.0 mm 0.00 in0.0 mm
01:32 AM 56.8°F13.8°C 54.3°F12.4°C 91% 2.9 mph W4.7 kmh W 2.9 mph4.7 kmh 30.03 in1016.9 mb - 0.00 in0.0 mm 0.00 in0.0 mm
01:27 AM 57.0°F13.9°C 54.5°F12.5°C 91% 4.0 mph SW6.4 kmh SW -- 30.03 in1016.9 mb - 0.00 in0.0 mm 0.00 in0.0 mm
01:22 AM 57.0°F13.9°C 54.5°F12.5°C 91% 4.0 mph WSW6.4 kmh WSW -- 30.03 in1016.9 mb - 0.00 in0.0 mm 0.00 in0.0 mm
01:17 AM 57.0°F13.9°C 54.5°F12.5°C 91% 4.0 mph WSW6.4 kmh WSW 0.9 mph1.4 kmh 30.03 in1016.9 mb - 0.00 in0.0 mm 0.00 in0.0 mm
01:12 AM 57.0°F13.9°C 54.5°F12.5°C 91% 4.0 mph WSW6.4 kmh WSW 2.9 mph4.7 kmh 30.03 in1016.9 mb - 0.00 in0.0 mm 0.00 in0.0 mm
01:07 AM 57.0°F13.9°C 54.5°F12.5°C 91% 2.9 mph WSW4.7 kmh WSW 2.9 mph4.7 kmh 30.03 in1016.9 mb - 0.00 in0.0 mm 0.00 in0.0 mm
01:02 AM 57.0°F13.9°C 54.5°F12.5°C 91% 2.0 mph WSW3.2 kmh WSW 2.9 mph4.7 kmh 30.03 in1016.9 mb - 0.00 in0.0 mm 0.00 in0.0 mm
12:57 AM 57.2°F14.0°C 54.7°F12.6°C 91% 2.0 mph WSW3.2 kmh WSW 4.0 mph6.4 kmh 30.03 in1016.9 mb - 0.00 in0.0 mm 0.00 in0.0 mm
12:52 AM 57.4°F14.1°C 54.9°F12.7°C 91% 2.0 mph W3.2 kmh W 2.9 mph4.7 kmh 30.03 in1016.9 mb - 0.00 in0.0 mm 0.00 in0.0 mm
12:47 AM 57.4°F14.1°C 54.5°F12.5°C 90% 0.9 mph WSW1.4 kmh WSW 0.9 mph1.4 kmh 30.03 in1016.9 mb - 0.00 in0.0 mm 0.00 in0.0 mm
12:42 AM 57.6°F14.2°C 54.7°F12.6°C 90% 0.9 mph WSW1.4 kmh WSW 2.9 mph4.7 kmh 30.02 in1016.6 mb - 0.00 in0.0 mm 0.00 in0.0 mm
12:37 AM 57.7°F14.3°C 54.9°F12.7°C 90% 0.9 mph WSW1.4 kmh WSW 0.9 mph1.4 kmh 30.02 in1016.6 mb - 0.00 in0.0 mm 0.00 in0.0 mm
12:32 AM 57.9°F14.4°C 55.0°F12.8°C 90% 0.9 mph W1.4 kmh W -- 30.02 in1016.6 mb - 0.00 in0.0 mm 0.00 in0.0 mm
12:27 AM 57.9°F14.4°C 55.0°F12.8°C 90% 0.9 mph WSW1.4 kmh WSW 2.0 mph3.2 kmh 30.02 in1016.6 mb - 0.00 in0.0 mm 0.00 in0.0 mm
12:22 AM 58.3°F14.6°C 55.0°F12.8°C 89% 2.0 mph W3.2 kmh W -- 30.02 in1016.6 mb - 0.00 in0.0 mm 0.00 in0.0 mm
12:17 AM 58.3°F14.6°C 55.0°F12.8°C 89% 2.0 mph W3.2 kmh W -- 30.02 in1016.6 mb - 0.00 in0.0 mm 0.00 in0.0 mm
12:12 AM 58.5°F14.7°C 55.2°F12.9°C 89% 2.9 mph WSW4.7 kmh WSW 2.0 mph3.2 kmh 30.02 in1016.6 mb - 0.00 in0.0 mm 0.00 in0.0 mm
12:07 AM 58.5°F14.7°C 55.2°F12.9°C 89% 2.9 mph WSW4.7 kmh WSW 2.9 mph4.7 kmh 30.02 in1016.6 mb - 0.00 in0.0 mm 0.00 in0.0 mm
12:02 AM 58.6°F14.8°C 55.4°F13.0°C 89% 2.9 mph WSW4.7 kmh WSW 0.9 mph1.4 kmh 30.02 in1016.6 mb - 0.00 in0.0 mm 0.34 in8.6 mm